BME weather

Broome International Airport
Broome, Western Australia, Australia

Public forecast

Using degrees Celsius for public forecast. Weather courtesy of forecast.io.

Current aviation weather report (METAR) for Broome International Airport

Retrieved 2020/04/06 18:00 UTC (28 minutes ago):

YBRM 061800Z AUTO 33005KT 9999 // NCD 29/24 Q1008

Aviation forecast (TAF) for Broome International Airport

Retrieved 2020/04/06 18:37 UTC (0 seconds ago):

TAF YBRM 061701Z 0618/0718 32006KT 9999 FEW015 FM070200 30012KT 9999 FEW025 FM071000 31005KT 9999 FEW020